sensor_id;sensor_type;location;lat;lon;timestamp;temperature;humidity
11934;DHT22;6026;48.784;9.198;2023-02-18T00:01:54;12.00;99.90
11934;DHT22;6026;48.784;9.198;2023-02-18T00:04:20;12.00;99.90
11934;DHT22;6026;48.784;9.198;2023-02-18T00:06:45;12.00;99.90
11934;DHT22;6026;48.784;9.198;2023-02-18T00:09:11;12.00;99.90
11934;DHT22;6026;48.784;9.198;2023-02-18T00:11:37;12.00;99.90
11934;DHT22;6026;48.784;9.198;2023-02-18T00:14:06;12.00;99.90
11934;DHT22;6026;48.784;9.198;2023-02-18T00:16:31;12.00;99.90
11934;DHT22;6026;48.784;9.198;2023-02-18T00:19:00;12.00;99.90
11934;DHT22;6026;48.784;9.198;2023-02-18T00:21:25;11.90;99.90
11934;DHT22;6026;48.784;9.198;2023-02-18T00:23:51;11.90;99.90
11934;DHT22;6026;48.784;9.198;2023-02-18T00:26:18;11.90;99.90
11934;DHT22;6026;48.784;9.198;2023-02-18T00:28:47;11.90;99.90
11934;DHT22;6026;48.784;9.198;2023-02-18T00:31:18;11.90;99.90
11934;DHT22;6026;48.784;9.198;2023-02-18T00:33:45;11.90;99.90
11934;DHT22;6026;48.784;9.198;2023-02-18T00:36:19;11.90;99.90
11934;DHT22;6026;48.784;9.198;2023-02-18T00:38:51;11.90;99.90
11934;DHT22;6026;48.784;9.198;2023-02-18T00:41:19;11.90;99.90
11934;DHT22;6026;48.784;9.198;2023-02-18T00:43:45;12.00;99.90
11934;DHT22;6026;48.784;9.198;2023-02-18T00:46:11;11.90;99.90
11934;DHT22;6026;48.784;9.198;2023-02-18T00:48:37;11.90;99.90
11934;DHT22;6026;48.784;9.198;2023-02-18T00:51:03;11.90;99.90
11934;DHT22;6026;48.784;9.198;2023-02-18T00:53:29;11.90;99.90
11934;DHT22;6026;48.784;9.198;2023-02-18T00:55:55;11.90;99.90
11934;DHT22;6026;48.784;9.198;2023-02-18T00:58:21;11.90;99.90
11934;DHT22;6026;48.784;9.198;2023-02-18T01:00:50;11.90;99.90
11934;DHT22;6026;48.784;9.198;2023-02-18T01:03:16;11.90;99.90
11934;DHT22;6026;48.784;9.198;2023-02-18T01:05:48;11.80;99.90
11934;DHT22;6026;48.784;9.198;2023-02-18T01:08:18;11.90;99.90
11934;DHT22;6026;48.784;9.198;2023-02-18T01:10:46;11.90;99.90
11934;DHT22;6026;48.784;9.198;2023-02-18T01:13:19;11.90;99.90
11934;DHT22;6026;48.784;9.198;2023-02-18T01:15:45;11.90;99.90
11934;DHT22;6026;48.784;9.198;2023-02-18T01:18:11;11.90;99.90
11934;DHT22;6026;48.784;9.198;2023-02-18T01:20:39;11.90;99.90
11934;DHT22;6026;48.784;9.198;2023-02-18T01:23:17;11.90;99.90
11934;DHT22;6026;48.784;9.198;2023-02-18T01:25:43;11.90;99.90
11934;DHT22;6026;48.784;9.198;2023-02-18T01:28:15;11.90;99.90
11934;DHT22;6026;48.784;9.198;2023-02-18T01:30:44;11.90;99.90
11934;DHT22;6026;48.784;9.198;2023-02-18T01:33:21;11.90;99.90
11934;DHT22;6026;48.784;9.198;2023-02-18T01:35:47;11.90;99.90
11934;DHT22;6026;48.784;9.198;2023-02-18T01:38:12;11.90;99.90
11934;DHT22;6026;48.784;9.198;2023-02-18T01:40:50;11.90;99.90
11934;DHT22;6026;48.784;9.198;2023-02-18T01:43:17;11.90;99.90
11934;DHT22;6026;48.784;9.198;2023-02-18T01:45:51;11.80;99.90
11934;DHT22;6026;48.784;9.198;2023-02-18T01:51:12;11.80;99.90
11934;DHT22;6026;48.784;9.198;2023-02-18T01:53:53;11.70;99.90
11934;DHT22;6026;48.784;9.198;2023-02-18T01:56:38;11.70;99.90
11934;DHT22;6026;48.784;9.198;2023-02-18T01:59:12;11.70;99.90
11934;DHT22;6026;48.784;9.198;2023-02-18T02:01:41;11.70;99.90
11934;DHT22;6026;48.784;9.198;2023-02-18T02:04:18;11.70;99.90
11934;DHT22;6026;48.784;9.198;2023-02-18T02:06:43;11.70;99.90
11934;DHT22;6026;48.784;9.198;2023-02-18T02:09:11;11.70;99.90
11934;DHT22;6026;48.784;9.198;2023-02-18T02:11:44;11.70;99.90
11934;DHT22;6026;48.784;9.198;2023-02-18T02:20:42;11.60;99.90
11934;DHT22;6026;48.784;9.198;2023-02-18T02:23:33;11.70;99.90
11934;DHT22;6026;48.784;9.198;2023-02-18T02:43:09;11.70;99.90
11934;DHT22;6026;48.784;9.198;2023-02-18T02:46:14;11.70;99.90
11934;DHT22;6026;48.784;9.198;2023-02-18T02:48:49;11.70;99.90
11934;DHT22;6026;48.784;9.198;2023-02-18T02:51:32;11.70;99.90
11934;DHT22;6026;48.784;9.198;2023-02-18T02:54:11;11.70;99.90
11934;DHT22;6026;48.784;9.198;2023-02-18T02:56:37;11.60;99.90
11934;DHT22;6026;48.784;9.198;2023-02-18T02:59:06;11.60;99.90
11934;DHT22;6026;48.784;9.198;2023-02-18T03:01:40;11.60;99.90
11934;DHT22;6026;48.784;9.198;2023-02-18T03:07:20;11.60;99.90
11934;DHT22;6026;48.784;9.198;2023-02-18T03:15:48;11.60;99.90
11934;DHT22;6026;48.784;9.198;2023-02-18T03:18:32;11.60;99.90
11934;DHT22;6026;48.784;9.198;2023-02-18T03:21:15;11.60;99.90
11934;DHT22;6026;48.784;9.198;2023-02-18T03:24:02;11.60;99.90
11934;DHT22;6026;48.784;9.198;2023-02-18T03:26:31;11.60;99.90
11934;DHT22;6026;48.784;9.198;2023-02-18T03:29:02;11.60;99.90
11934;DHT22;6026;48.784;9.198;2023-02-18T03:31:32;11.50;99.90
11934;DHT22;6026;48.784;9.198;2023-02-18T03:34:02;11.50;99.90
11934;DHT22;6026;48.784;9.198;2023-02-18T03:36:31;11.50;99.90
11934;DHT22;6026;48.784;9.198;2023-02-18T03:39:17;11.50;99.90
11934;DHT22;6026;48.784;9.198;2023-02-18T03:41:45;11.40;99.90
11934;DHT22;6026;48.784;9.198;2023-02-18T03:44:11;11.40;99.90
11934;DHT22;6026;48.784;9.198;2023-02-18T03:46:41;11.30;99.90
11934;DHT22;6026;48.784;9.198;2023-02-18T03:49:13;11.30;99.90
11934;DHT22;6026;48.784;9.198;2023-02-18T03:51:42;11.20;99.90
11934;DHT22;6026;48.784;9.198;2023-02-18T03:54:10;11.20;99.90
11934;DHT22;6026;48.784;9.198;2023-02-18T03:56:40;11.10;99.90
11934;DHT22;6026;48.784;9.198;2023-02-18T03:59:08;11.10;99.90
11934;DHT22;6026;48.784;9.198;2023-02-18T04:01:33;10.90;99.90
11934;DHT22;6026;48.784;9.198;2023-02-18T04:04:03;10.90;99.90
11934;DHT22;6026;48.784;9.198;2023-02-18T04:06:31;10.80;99.90
11934;DHT22;6026;48.784;9.198;2023-02-18T04:08:59;10.80;99.90
11934;DHT22;6026;48.784;9.198;2023-02-18T04:11:24;10.80;99.90
11934;DHT22;6026;48.784;9.198;2023-02-18T04:13:53;10.80;99.90
11934;DHT22;6026;48.784;9.198;2023-02-18T04:16:19;10.80;99.90
11934;DHT22;6026;48.784;9.198;2023-02-18T04:18:51;10.80;99.90
11934;DHT22;6026;48.784;9.198;2023-02-18T04:21:17;10.80;99.90
11934;DHT22;6026;48.784;9.198;2023-02-18T04:23:42;10.80;99.90
11934;DHT22;6026;48.784;9.198;2023-02-18T04:26:08;10.80;99.90
11934;DHT22;6026;48.784;9.198;2023-02-18T04:28:33;10.90;99.90
11934;DHT22;6026;48.784;9.198;2023-02-18T04:30:59;10.80;99.90
11934;DHT22;6026;48.784;9.198;2023-02-18T04:33:25;10.80;99.90
11934;DHT22;6026;48.784;9.198;2023-02-18T04:35:50;10.80;99.90
11934;DHT22;6026;48.784;9.198;2023-02-18T04:38:16;10.80;99.90
11934;DHT22;6026;48.784;9.198;2023-02-18T04:40:41;10.80;99.90
11934;DHT22;6026;48.784;9.198;2023-02-18T04:43:07;10.70;99.90
11934;DHT22;6026;48.784;9.198;2023-02-18T04:45:32;10.70;99.90
11934;DHT22;6026;48.784;9.198;2023-02-18T04:47:58;10.70;99.90
11934;DHT22;6026;48.784;9.198;2023-02-18T04:50:23;10.70;99.90
11934;DHT22;6026;48.784;9.198;2023-02-18T04:52:49;10.70;99.90
11934;DHT22;6026;48.784;9.198;2023-02-18T04:55:15;10.60;99.90
11934;DHT22;6026;48.784;9.198;2023-02-18T04:57:40;10.60;99.90
11934;DHT22;6026;48.784;9.198;2023-02-18T05:00:09;10.60;99.90
11934;DHT22;6026;48.784;9.198;2023-02-18T05:02:37;10.60;99.90
11934;DHT22;6026;48.784;9.198;2023-02-18T05:05:03;10.60;99.90
11934;DHT22;6026;48.784;9.198;2023-02-18T05:07:29;10.60;99.90
11934;DHT22;6026;48.784;9.198;2023-02-18T05:09:54;10.50;99.90
11934;DHT22;6026;48.784;9.198;2023-02-18T05:12:20;10.50;99.90
11934;DHT22;6026;48.784;9.198;2023-02-18T05:14:45;10.50;99.90
11934;DHT22;6026;48.784;9.198;2023-02-18T05:17:11;10.50;99.90
11934;DHT22;6026;48.784;9.198;2023-02-18T05:19:37;10.50;99.90
11934;DHT22;6026;48.784;9.198;2023-02-18T05:22:02;10.40;99.90
11934;DHT22;6026;48.784;9.198;2023-02-18T05:24:28;10.40;99.90
11934;DHT22;6026;48.784;9.198;2023-02-18T05:26:53;10.40;99.90
11934;DHT22;6026;48.784;9.198;2023-02-18T05:29:19;10.40;99.90
11934;DHT22;6026;48.784;9.198;2023-02-18T05:31:45;10.40;99.90
11934;DHT22;6026;48.784;9.198;2023-02-18T05:34:10;10.40;99.90
11934;DHT22;6026;48.784;9.198;2023-02-18T05:36:36;10.50;99.90
11934;DHT22;6026;48.784;9.198;2023-02-18T05:39:02;10.40;99.90
11934;DHT22;6026;48.784;9.198;2023-02-18T05:41:27;10.50;99.90
11934;DHT22;6026;48.784;9.198;2023-02-18T05:43:53;10.50;99.90
11934;DHT22;6026;48.784;9.198;2023-02-18T05:46:37;10.50;99.90
11934;DHT22;6026;48.784;9.198;2023-02-18T05:49:02;10.40;99.90
11934;DHT22;6026;48.784;9.198;2023-02-18T05:51:28;10.50;99.90
11934;DHT22;6026;48.784;9.198;2023-02-18T05:53:54;10.40;99.90
11934;DHT22;6026;48.784;9.198;2023-02-18T05:56:20;10.40;99.90
11934;DHT22;6026;48.784;9.198;2023-02-18T05:58:45;10.50;99.90
11934;DHT22;6026;48.784;9.198;2023-02-18T06:01:11;10.40;99.90
11934;DHT22;6026;48.784;9.198;2023-02-18T06:03:36;10.40;99.90
11934;DHT22;6026;48.784;9.198;2023-02-18T06:06:02;10.50;99.90
11934;DHT22;6026;48.784;9.198;2023-02-18T06:08:28;10.50;99.90
11934;DHT22;6026;48.784;9.198;2023-02-18T06:10:53;10.50;99.90
11934;DHT22;6026;48.784;9.198;2023-02-18T06:13:19;10.50;99.90
11934;DHT22;6026;48.784;9.198;2023-02-18T06:15:45;10.50;99.90
11934;DHT22;6026;48.784;9.198;2023-02-18T06:18:10;10.60;99.90
11934;DHT22;6026;48.784;9.198;2023-02-18T06:20:37;10.60;99.90
11934;DHT22;6026;48.784;9.198;2023-02-18T06:23:03;10.50;99.90
11934;DHT22;6026;48.784;9.198;2023-02-18T06:25:28;10.50;99.90
11934;DHT22;6026;48.784;9.198;2023-02-18T06:27:54;10.60;99.90
11934;DHT22;6026;48.784;9.198;2023-02-18T06:30:19;10.60;99.90
11934;DHT22;6026;48.784;9.198;2023-02-18T06:32:45;10.60;99.90
11934;DHT22;6026;48.784;9.198;2023-02-18T06:35:10;10.50;99.90
11934;DHT22;6026;48.784;9.198;2023-02-18T06:37:36;10.50;99.90
11934;DHT22;6026;48.784;9.198;2023-02-18T06:40:02;10.60;99.90
11934;DHT22;6026;48.784;9.198;2023-02-18T06:42:27;10.60;99.90
11934;DHT22;6026;48.784;9.198;2023-02-18T06:44:53;10.60;99.90
11934;DHT22;6026;48.784;9.198;2023-02-18T06:47:18;10.60;99.90
11934;DHT22;6026;48.784;9.198;2023-02-18T06:49:44;10.60;99.90
11934;DHT22;6026;48.784;9.198;2023-02-18T06:52:10;10.60;99.90
11934;DHT22;6026;48.784;9.198;2023-02-18T06:54:35;10.70;99.90
11934;DHT22;6026;48.784;9.198;2023-02-18T06:57:01;10.70;99.90
11934;DHT22;6026;48.784;9.198;2023-02-18T06:59:26;10.70;99.90
11934;DHT22;6026;48.784;9.198;2023-02-18T07:01:52;10.80;99.90
11934;DHT22;6026;48.784;9.198;2023-02-18T07:04:18;10.80;99.90
11934;DHT22;6026;48.784;9.198;2023-02-18T07:06:43;10.80;99.90
11934;DHT22;6026;48.784;9.198;2023-02-18T07:09:09;10.80;99.90
11934;DHT22;6026;48.784;9.198;2023-02-18T07:11:34;10.80;99.90
11934;DHT22;6026;48.784;9.198;2023-02-18T07:14:00;10.90;99.90
11934;DHT22;6026;48.784;9.198;2023-02-18T07:16:26;10.80;99.90
11934;DHT22;6026;48.784;9.198;2023-02-18T07:18:51;10.90;99.90
11934;DHT22;6026;48.784;9.198;2023-02-18T07:21:17;10.90;99.90
11934;DHT22;6026;48.784;9.198;2023-02-18T07:23:43;11.00;99.90
11934;DHT22;6026;48.784;9.198;2023-02-18T07:26:13;11.00;99.90
11934;DHT22;6026;48.784;9.198;2023-02-18T07:28:39;11.10;99.90
11934;DHT22;6026;48.784;9.198;2023-02-18T07:31:06;11.10;99.90
11934;DHT22;6026;48.784;9.198;2023-02-18T07:33:32;11.10;99.90
11934;DHT22;6026;48.784;9.198;2023-02-18T07:36:00;11.20;99.90
11934;DHT22;6026;48.784;9.198;2023-02-18T07:38:26;11.20;99.90
11934;DHT22;6026;48.784;9.198;2023-02-18T07:40:53;11.30;99.90
11934;DHT22;6026;48.784;9.198;2023-02-18T07:43:19;11.30;99.90
11934;DHT22;6026;48.784;9.198;2023-02-18T07:45:45;11.40;99.90
11934;DHT22;6026;48.784;9.198;2023-02-18T07:48:11;11.40;99.90
11934;DHT22;6026;48.784;9.198;2023-02-18T07:50:41;11.40;99.90
11934;DHT22;6026;48.784;9.198;2023-02-18T07:53:07;11.50;99.90
11934;DHT22;6026;48.784;9.198;2023-02-18T07:55:33;11.50;99.90
11934;DHT22;6026;48.784;9.198;2023-02-18T07:58:18;11.60;99.90
11934;DHT22;6026;48.784;9.198;2023-02-18T08:00:44;11.60;99.90
11934;DHT22;6026;48.784;9.198;2023-02-18T08:03:12;11.70;99.90
11934;DHT22;6026;48.784;9.198;2023-02-18T08:05:38;11.80;99.90
11934;DHT22;6026;48.784;9.198;2023-02-18T08:08:04;11.90;99.90
11934;DHT22;6026;48.784;9.198;2023-02-18T08:10:30;11.90;99.90
11934;DHT22;6026;48.784;9.198;2023-02-18T08:12:56;11.90;99.90
11934;DHT22;6026;48.784;9.198;2023-02-18T08:15:21;12.00;99.90
11934;DHT22;6026;48.784;9.198;2023-02-18T08:17:47;12.00;99.90
11934;DHT22;6026;48.784;9.198;2023-02-18T08:20:13;12.00;99.90
11934;DHT22;6026;48.784;9.198;2023-02-18T08:22:39;12.10;99.90
11934;DHT22;6026;48.784;9.198;2023-02-18T08:25:04;12.10;99.90
11934;DHT22;6026;48.784;9.198;2023-02-18T08:27:30;12.10;99.90
11934;DHT22;6026;48.784;9.198;2023-02-18T08:29:56;12.20;99.90
11934;DHT22;6026;48.784;9.198;2023-02-18T08:32:21;12.20;99.90
11934;DHT22;6026;48.784;9.198;2023-02-18T08:34:47;12.30;99.90
11934;DHT22;6026;48.784;9.198;2023-02-18T08:37:13;12.40;99.90
11934;DHT22;6026;48.784;9.198;2023-02-18T08:39:38;12.40;99.90
11934;DHT22;6026;48.784;9.198;2023-02-18T08:42:04;12.40;99.90
11934;DHT22;6026;48.784;9.198;2023-02-18T08:44:30;12.50;99.90
11934;DHT22;6026;48.784;9.198;2023-02-18T08:46:55;12.50;99.90
11934;DHT22;6026;48.784;9.198;2023-02-18T08:49:21;12.60;99.90
11934;DHT22;6026;48.784;9.198;2023-02-18T08:51:49;12.60;99.90
11934;DHT22;6026;48.784;9.198;2023-02-18T08:54:15;12.60;99.90
11934;DHT22;6026;48.784;9.198;2023-02-18T08:56:40;12.70;99.90
11934;DHT22;6026;48.784;9.198;2023-02-18T08:59:06;12.80;99.90
11934;DHT22;6026;48.784;9.198;2023-02-18T09:01:32;12.80;99.90
11934;DHT22;6026;48.784;9.198;2023-02-18T09:03:57;12.90;99.90
11934;DHT22;6026;48.784;9.198;2023-02-18T09:06:23;13.00;99.90
11934;DHT22;6026;48.784;9.198;2023-02-18T09:08:49;13.10;99.90
11934;DHT22;6026;48.784;9.198;2023-02-18T09:11:16;13.30;99.90
11934;DHT22;6026;48.784;9.198;2023-02-18T09:13:42;13.40;99.90
11934;DHT22;6026;48.784;9.198;2023-02-18T09:16:15;13.40;99.90
11934;DHT22;6026;48.784;9.198;2023-02-18T09:18:43;13.40;99.90
11934;DHT22;6026;48.784;9.198;2023-02-18T09:21:11;13.50;99.90
11934;DHT22;6026;48.784;9.198;2023-02-18T09:23:38;13.50;99.90
11934;DHT22;6026;48.784;9.198;2023-02-18T09:26:09;13.70;99.90
11934;DHT22;6026;48.784;9.198;2023-02-18T09:28:35;13.70;99.90
11934;DHT22;6026;48.784;9.198;2023-02-18T09:31:10;13.90;99.90
11934;DHT22;6026;48.784;9.198;2023-02-18T09:33:38;14.00;99.90
11934;DHT22;6026;48.784;9.198;2023-02-18T09:36:05;14.00;99.90
11934;DHT22;6026;48.784;9.198;2023-02-18T09:38:32;14.20;99.90
11934;DHT22;6026;48.784;9.198;2023-02-18T09:40:58;14.20;99.90
11934;DHT22;6026;48.784;9.198;2023-02-18T09:43:34;14.20;99.90
11934;DHT22;6026;48.784;9.198;2023-02-18T09:46:02;14.10;99.90
11934;DHT22;6026;48.784;9.198;2023-02-18T09:48:32;14.10;99.90
11934;DHT22;6026;48.784;9.198;2023-02-18T09:50:58;14.10;99.90
11934;DHT22;6026;48.784;9.198;2023-02-18T09:53:25;14.00;99.90
11934;DHT22;6026;48.784;9.198;2023-02-18T09:55:56;14.00;99.90
11934;DHT22;6026;48.784;9.198;2023-02-18T09:58:28;13.90;99.90
11934;DHT22;6026;48.784;9.198;2023-02-18T10:03:24;13.80;99.90
11934;DHT22;6026;48.784;9.198;2023-02-18T10:11:28;13.70;99.90
11934;DHT22;6026;48.784;9.198;2023-02-18T10:13:56;13.70;99.90
11934;DHT22;6026;48.784;9.198;2023-02-18T10:16:23;13.70;99.90
11934;DHT22;6026;48.784;9.198;2023-02-18T10:18:55;13.60;99.90
11934;DHT22;6026;48.784;9.198;2023-02-18T10:21:26;13.60;99.90
11934;DHT22;6026;48.784;9.198;2023-02-18T10:23:57;13.60;99.90
11934;DHT22;6026;48.784;9.198;2023-02-18T10:26:25;13.70;99.90
11934;DHT22;6026;48.784;9.198;2023-02-18T10:28:51;13.70;99.90
11934;DHT22;6026;48.784;9.198;2023-02-18T10:32:05;13.80;99.90
11934;DHT22;6026;48.784;9.198;2023-02-18T10:37:27;13.80;99.90
11934;DHT22;6026;48.784;9.198;2023-02-18T10:40:20;13.70;99.90
11934;DHT22;6026;48.784;9.198;2023-02-18T10:43:22;13.80;99.90
11934;DHT22;6026;48.784;9.198;2023-02-18T10:50:59;13.90;99.90
11934;DHT22;6026;48.784;9.198;2023-02-18T10:53:38;13.90;99.90
11934;DHT22;6026;48.784;9.198;2023-02-18T10:56:06;13.90;99.90
11934;DHT22;6026;48.784;9.198;2023-02-18T10:58:35;13.90;99.90
11934;DHT22;6026;48.784;9.198;2023-02-18T11:01:04;14.00;99.90
11934;DHT22;6026;48.784;9.198;2023-02-18T11:06:26;14.10;99.90
11934;DHT22;6026;48.784;9.198;2023-02-18T11:08:55;14.10;99.90
11934;DHT22;6026;48.784;9.198;2023-02-18T11:11:27;14.10;99.90
11934;DHT22;6026;48.784;9.198;2023-02-18T11:13:55;14.10;99.90
11934;DHT22;6026;48.784;9.198;2023-02-18T11:16:23;14.20;99.90
11934;DHT22;6026;48.784;9.198;2023-02-18T11:18:49;14.10;99.90
11934;DHT22;6026;48.784;9.198;2023-02-18T11:21:30;14.10;99.90
11934;DHT22;6026;48.784;9.198;2023-02-18T11:23:57;14.10;99.90
11934;DHT22;6026;48.784;9.198;2023-02-18T11:26:32;14.10;99.90
11934;DHT22;6026;48.784;9.198;2023-02-18T11:29:06;14.10;99.90
11934;DHT22;6026;48.784;9.198;2023-02-18T11:31:42;14.20;99.90
11934;DHT22;6026;48.784;9.198;2023-02-18T11:34:20;14.20;99.90
11934;DHT22;6026;48.784;9.198;2023-02-18T11:36:47;14.20;99.90
11934;DHT22;6026;48.784;9.198;2023-02-18T11:39:17;14.20;99.90
11934;DHT22;6026;48.784;9.198;2023-02-18T11:47:19;14.30;99.90
11934;DHT22;6026;48.784;9.198;2023-02-18T11:49:59;14.20;99.90
11934;DHT22;6026;48.784;9.198;2023-02-18T11:52:29;14.20;99.90
11934;DHT22;6026;48.784;9.198;2023-02-18T11:55:01;14.30;99.90
11934;DHT22;6026;48.784;9.198;2023-02-18T11:57:28;14.30;99.90
11934;DHT22;6026;48.784;9.198;2023-02-18T11:59:54;14.40;99.90
11934;DHT22;6026;48.784;9.198;2023-02-18T12:02:36;14.50;99.90
11934;DHT22;6026;48.784;9.198;2023-02-18T12:05:16;14.50;99.90
11934;DHT22;6026;48.784;9.198;2023-02-18T12:13:19;14.60;99.90
11934;DHT22;6026;48.784;9.198;2023-02-18T12:19:01;14.50;99.90
11934;DHT22;6026;48.784;9.198;2023-02-18T12:21:55;14.50;99.90
11934;DHT22;6026;48.784;9.198;2023-02-18T12:27:30;14.60;99.90
11934;DHT22;6026;48.784;9.198;2023-02-18T12:33:32;14.60;99.90
11934;DHT22;6026;48.784;9.198;2023-02-18T12:39:05;14.80;99.90
11934;DHT22;6026;48.784;9.198;2023-02-18T12:41:42;14.80;99.90
11934;DHT22;6026;48.784;9.198;2023-02-18T12:44:31;14.80;99.90
11934;DHT22;6026;48.784;9.198;2023-02-18T12:47:28;14.80;99.90
11934;DHT22;6026;48.784;9.198;2023-02-18T12:53:17;14.90;99.90
11934;DHT22;6026;48.784;9.198;2023-02-18T13:07:55;15.00;99.90
11934;DHT22;6026;48.784;9.198;2023-02-18T13:12:45;14.80;99.90
11934;DHT22;6026;48.784;9.198;2023-02-18T13:15:52;14.80;99.90
11934;DHT22;6026;48.784;9.198;2023-02-18T13:18:29;14.70;99.90
11934;DHT22;6026;48.784;9.198;2023-02-18T13:21:08;14.70;99.90
11934;DHT22;6026;48.784;9.198;2023-02-18T13:23:39;14.60;99.90
11934;DHT22;6026;48.784;9.198;2023-02-18T13:26:11;14.50;99.90
11934;DHT22;6026;48.784;9.198;2023-02-18T13:34:30;14.30;99.90
11934;DHT22;6026;48.784;9.198;2023-02-18T13:37:05;14.30;99.90
11934;DHT22;6026;48.784;9.198;2023-02-18T13:39:32;14.30;99.90
11934;DHT22;6026;48.784;9.198;2023-02-18T13:42:26;14.30;99.90
11934;DHT22;6026;48.784;9.198;2023-02-18T13:50:27;14.80;99.90
11934;DHT22;6026;48.784;9.198;2023-02-18T13:58:22;15.10;99.90
11934;DHT22;6026;48.784;9.198;2023-02-18T14:00:54;15.10;99.90
11934;DHT22;6026;48.784;9.198;2023-02-18T14:03:35;15.10;99.90
11934;DHT22;6026;48.784;9.198;2023-02-18T14:06:22;15.30;99.90
11934;DHT22;6026;48.784;9.198;2023-02-18T14:08:48;15.40;99.90
11934;DHT22;6026;48.784;9.198;2023-02-18T14:13:51;15.80;99.90
11934;DHT22;6026;48.784;9.198;2023-02-18T14:16:18;15.80;99.90
11934;DHT22;6026;48.784;9.198;2023-02-18T14:23:40;15.70;99.90
11934;DHT22;6026;48.784;9.198;2023-02-18T14:28:44;15.40;99.90
11934;DHT22;6026;48.784;9.198;2023-02-18T14:50:31;15.40;99.90
11934;DHT22;6026;48.784;9.198;2023-02-18T14:53:03;15.50;99.90
11934;DHT22;6026;48.784;9.198;2023-02-18T14:55:34;15.30;99.90
11934;DHT22;6026;48.784;9.198;2023-02-18T14:58:07;15.30;99.90
11934;DHT22;6026;48.784;9.198;2023-02-18T15:00:41;15.30;99.90
11934;DHT22;6026;48.784;9.198;2023-02-18T15:03:16;15.20;99.90
11934;DHT22;6026;48.784;9.198;2023-02-18T15:05:44;15.10;99.90
11934;DHT22;6026;48.784;9.198;2023-02-18T15:08:21;15.10;99.90
11934;DHT22;6026;48.784;9.198;2023-02-18T15:11:09;15.00;99.90
11934;DHT22;6026;48.784;9.198;2023-02-18T15:13:36;15.00;99.90
11934;DHT22;6026;48.784;9.198;2023-02-18T15:16:07;14.90;99.90
11934;DHT22;6026;48.784;9.198;2023-02-18T15:18:51;14.90;99.90
11934;DHT22;6026;48.784;9.198;2023-02-18T15:21:32;14.70;99.90
11934;DHT22;6026;48.784;9.198;2023-02-18T15:26:43;14.60;99.90
11934;DHT22;6026;48.784;9.198;2023-02-18T15:29:17;14.50;99.90
11934;DHT22;6026;48.784;9.198;2023-02-18T15:31:46;14.40;99.90
11934;DHT22;6026;48.784;9.198;2023-02-18T15:34:35;14.30;99.90
11934;DHT22;6026;48.784;9.198;2023-02-18T15:37:03;14.30;99.90
11934;DHT22;6026;48.784;9.198;2023-02-18T15:39:29;14.30;99.90
11934;DHT22;6026;48.784;9.198;2023-02-18T15:42:44;14.20;99.90
11934;DHT22;6026;48.784;9.198;2023-02-18T15:44:47;14.20;99.90
11934;DHT22;6026;48.784;9.198;2023-02-18T15:47:14;14.10;99.90
11934;DHT22;6026;48.784;9.198;2023-02-18T15:49:45;14.00;99.90
11934;DHT22;6026;48.784;9.198;2023-02-18T15:52:12;14.00;99.90
11934;DHT22;6026;48.784;9.198;2023-02-18T15:54:39;14.00;99.90
11934;DHT22;6026;48.784;9.198;2023-02-18T15:57:05;13.90;99.90
11934;DHT22;6026;48.784;9.198;2023-02-18T15:59:35;13.90;99.90
11934;DHT22;6026;48.784;9.198;2023-02-18T16:04:38;13.80;99.90
11934;DHT22;6026;48.784;9.198;2023-02-18T16:07:23;13.80;99.90
11934;DHT22;6026;48.784;9.198;2023-02-18T16:09:50;13.80;99.90
11934;DHT22;6026;48.784;9.198;2023-02-18T16:12:27;13.80;99.90
11934;DHT22;6026;48.784;9.198;2023-02-18T16:14:55;13.70;99.90
11934;DHT22;6026;48.784;9.198;2023-02-18T16:17:24;13.70;99.90
11934;DHT22;6026;48.784;9.198;2023-02-18T16:20:13;13.60;99.90
11934;DHT22;6026;48.784;9.198;2023-02-18T16:22:45;13.50;99.90
11934;DHT22;6026;48.784;9.198;2023-02-18T16:25:22;13.50;99.90
11934;DHT22;6026;48.784;9.198;2023-02-18T16:28:15;13.50;99.90
11934;DHT22;6026;48.784;9.198;2023-02-18T16:30:41;13.40;99.90
11934;DHT22;6026;48.784;9.198;2023-02-18T16:33:08;13.40;99.90
11934;DHT22;6026;48.784;9.198;2023-02-18T16:35:34;13.40;99.90
11934;DHT22;6026;48.784;9.198;2023-02-18T16:38:00;13.30;99.90
11934;DHT22;6026;48.784;9.198;2023-02-18T16:40:34;13.30;99.90
11934;DHT22;6026;48.784;9.198;2023-02-18T16:43:23;13.20;99.90
11934;DHT22;6026;48.784;9.198;2023-02-18T16:45:57;13.20;99.90
11934;DHT22;6026;48.784;9.198;2023-02-18T16:48:26;13.20;99.90
11934;DHT22;6026;48.784;9.198;2023-02-18T16:50:52;13.20;99.90
11934;DHT22;6026;48.784;9.198;2023-02-18T16:53:18;13.20;99.90
11934;DHT22;6026;48.784;9.198;2023-02-18T16:55:44;13.10;99.90
11934;DHT22;6026;48.784;9.198;2023-02-18T16:58:10;13.10;99.90
11934;DHT22;6026;48.784;9.198;2023-02-18T17:00:36;13.10;99.90
11934;DHT22;6026;48.784;9.198;2023-02-18T17:03:03;13.10;99.90
11934;DHT22;6026;48.784;9.198;2023-02-18T17:05:31;13.10;99.90
11934;DHT22;6026;48.784;9.198;2023-02-18T17:08:14;13.10;99.90
11934;DHT22;6026;48.784;9.198;2023-02-18T17:10:41;13.10;99.90
11934;DHT22;6026;48.784;9.198;2023-02-18T17:13:14;13.10;99.90
11934;DHT22;6026;48.784;9.198;2023-02-18T17:15:41;13.10;99.90
11934;DHT22;6026;48.784;9.198;2023-02-18T17:18:08;13.00;99.90
11934;DHT22;6026;48.784;9.198;2023-02-18T17:20:33;13.00;99.90
11934;DHT22;6026;48.784;9.198;2023-02-18T17:22:59;13.00;99.90
11934;DHT22;6026;48.784;9.198;2023-02-18T17:25:36;13.00;99.90
11934;DHT22;6026;48.784;9.198;2023-02-18T17:28:02;13.00;99.90
11934;DHT22;6026;48.784;9.198;2023-02-18T17:30:29;13.00;99.90
11934;DHT22;6026;48.784;9.198;2023-02-18T17:32:58;13.00;99.90
11934;DHT22;6026;48.784;9.198;2023-02-18T17:35:24;13.00;99.90
11934;DHT22;6026;48.784;9.198;2023-02-18T17:37:50;12.90;99.90
11934;DHT22;6026;48.784;9.198;2023-02-18T17:40:21;13.00;99.90
11934;DHT22;6026;48.784;9.198;2023-02-18T17:42:47;12.90;99.90
11934;DHT22;6026;48.784;9.198;2023-02-18T17:45:24;12.90;99.90
11934;DHT22;6026;48.784;9.198;2023-02-18T17:47:52;12.90;99.90
11934;DHT22;6026;48.784;9.198;2023-02-18T17:50:18;12.90;99.90
11934;DHT22;6026;48.784;9.198;2023-02-18T17:52:43;12.80;99.90
11934;DHT22;6026;48.784;9.198;2023-02-18T17:55:18;12.80;99.90
11934;DHT22;6026;48.784;9.198;2023-02-18T17:57:45;12.80;99.90
11934;DHT22;6026;48.784;9.198;2023-02-18T18:00:14;12.80;99.90
11934;DHT22;6026;48.784;9.198;2023-02-18T18:02:40;12.70;99.90
11934;DHT22;6026;48.784;9.198;2023-02-18T18:05:08;12.70;99.90
11934;DHT22;6026;48.784;9.198;2023-02-18T18:07:35;12.70;99.90
11934;DHT22;6026;48.784;9.198;2023-02-18T18:10:00;12.70;99.90
11934;DHT22;6026;48.784;9.198;2023-02-18T18:12:26;12.70;99.90
11934;DHT22;6026;48.784;9.198;2023-02-18T18:14:53;12.60;99.90
11934;DHT22;6026;48.784;9.198;2023-02-18T18:17:19;12.60;99.90
11934;DHT22;6026;48.784;9.198;2023-02-18T18:19:44;12.60;99.90
11934;DHT22;6026;48.784;9.198;2023-02-18T18:22:10;12.60;99.90
11934;DHT22;6026;48.784;9.198;2023-02-18T18:24:36;12.60;99.90
11934;DHT22;6026;48.784;9.198;2023-02-18T18:27:03;12.60;99.90
11934;DHT22;6026;48.784;9.198;2023-02-18T18:29:28;12.60;99.90